sensor_id;sensor_type;location;lat;lon;timestamp;P1;durP1;ratioP1;P2;durP2;ratioP2
35223;SDS011;21367;51.930;8.112;2022-08-05T00:00:57;8.35;;;2.20;;
35223;SDS011;21367;51.930;8.112;2022-08-05T00:06:03;8.32;;;1.83;;
35223;SDS011;21367;51.930;8.112;2022-08-05T00:11:08;3.97;;;1.50;;
35223;SDS011;21367;51.930;8.112;2022-08-05T00:21:20;7.88;;;2.30;;
35223;SDS011;21367;51.930;8.112;2022-08-05T00:26:23;7.75;;;2.55;;
35223;SDS011;21367;51.930;8.112;2022-08-05T00:31:27;11.30;;;2.55;;
35223;SDS011;21367;51.930;8.112;2022-08-05T00:36:34;12.80;;;3.15;;
35223;SDS011;21367;51.930;8.112;2022-08-05T00:41:38;17.45;;;3.58;;
35223;SDS011;21367;51.930;8.112;2022-08-05T00:46:42;16.00;;;4.50;;
35223;SDS011;21367;51.930;8.112;2022-08-05T00:51:48;14.35;;;4.15;;
35223;SDS011;21367;51.930;8.112;2022-08-05T00:56:52;18.20;;;5.18;;
35223;SDS011;21367;51.930;8.112;2022-08-05T01:01:56;21.92;;;5.95;;
35223;SDS011;21367;51.930;8.112;2022-08-05T01:07:03;27.65;;;6.28;;
35223;SDS011;21367;51.930;8.112;2022-08-05T01:12:08;16.27;;;5.78;;
35223;SDS011;21367;51.930;8.112;2022-08-05T01:17:16;25.58;;;5.35;;
35223;SDS011;21367;51.930;8.112;2022-08-05T01:39:30;20.27;;;5.50;;
35223;SDS011;21367;51.930;8.112;2022-08-05T01:44:39;12.90;;;4.78;;
35223;SDS011;21367;51.930;8.112;2022-08-05T01:49:43;25.10;;;5.70;;
35223;SDS011;21367;51.930;8.112;2022-08-05T01:54:50;28.85;;;5.63;;
35223;SDS011;21367;51.930;8.112;2022-08-05T02:00:06;17.85;;;5.70;;
35223;SDS011;21367;51.930;8.112;2022-08-05T02:05:11;19.25;;;6.07;;
35223;SDS011;21367;51.930;8.112;2022-08-05T02:10:16;16.88;;;6.20;;
35223;SDS011;21367;51.930;8.112;2022-08-05T02:15:24;15.55;;;5.72;;
35223;SDS011;21367;51.930;8.112;2022-08-05T02:20:32;23.60;;;5.97;;
35223;SDS011;21367;51.930;8.112;2022-08-05T02:25:46;20.08;;;6.28;;
35223;SDS011;21367;51.930;8.112;2022-08-05T02:30:57;17.10;;;6.72;;
35223;SDS011;21367;51.930;8.112;2022-08-05T02:36:03;19.23;;;6.15;;
35223;SDS011;21367;51.930;8.112;2022-08-05T02:41:10;17.05;;;6.50;;
35223;SDS011;21367;51.930;8.112;2022-08-05T02:46:17;29.05;;;6.93;;
35223;SDS011;21367;51.930;8.112;2022-08-05T02:51:22;19.17;;;5.63;;
35223;SDS011;21367;51.930;8.112;2022-08-05T02:56:28;19.83;;;6.83;;
35223;SDS011;21367;51.930;8.112;2022-08-05T03:01:35;18.52;;;6.13;;
35223;SDS011;21367;51.930;8.112;2022-08-05T03:06:42;22.90;;;7.38;;
35223;SDS011;21367;51.930;8.112;2022-08-05T03:11:46;19.02;;;6.55;;
35223;SDS011;21367;51.930;8.112;2022-08-05T03:16:53;19.30;;;6.63;;
35223;SDS011;21367;51.930;8.112;2022-08-05T03:21:56;18.77;;;6.53;;
35223;SDS011;21367;51.930;8.112;2022-08-05T03:27:00;28.35;;;7.28;;
35223;SDS011;21367;51.930;8.112;2022-08-05T03:32:08;18.45;;;6.63;;
35223;SDS011;21367;51.930;8.112;2022-08-05T03:37:13;18.75;;;6.97;;
35223;SDS011;21367;51.930;8.112;2022-08-05T03:42:17;15.05;;;7.38;;
35223;SDS011;21367;51.930;8.112;2022-08-05T03:47:23;15.65;;;7.00;;
35223;SDS011;21367;51.930;8.112;2022-08-05T03:52:28;17.73;;;7.50;;
35223;SDS011;21367;51.930;8.112;2022-08-05T03:57:38;20.63;;;7.80;;
35223;SDS011;21367;51.930;8.112;2022-08-05T04:02:47;23.87;;;9.37;;
35223;SDS011;21367;51.930;8.112;2022-08-05T04:07:54;20.88;;;8.85;;
35223;SDS011;21367;51.930;8.112;2022-08-05T04:12:58;24.50;;;10.07;;
35223;SDS011;21367;51.930;8.112;2022-08-05T04:18:05;24.63;;;9.05;;
35223;SDS011;21367;51.930;8.112;2022-08-05T04:23:09;21.70;;;10.18;;
35223;SDS011;21367;51.930;8.112;2022-08-05T04:28:13;28.48;;;10.75;;
35223;SDS011;21367;51.930;8.112;2022-08-05T04:33:19;29.90;;;11.63;;
35223;SDS011;21367;51.930;8.112;2022-08-05T04:38:23;29.27;;;13.65;;
35223;SDS011;21367;51.930;8.112;2022-08-05T04:43:27;43.17;;;15.48;;
35223;SDS011;21367;51.930;8.112;2022-08-05T04:48:33;36.15;;;16.30;;
35223;SDS011;21367;51.930;8.112;2022-08-05T04:53:37;40.28;;;16.52;;
35223;SDS011;21367;51.930;8.112;2022-08-05T04:58:41;39.63;;;18.05;;
35223;SDS011;21367;51.930;8.112;2022-08-05T05:03:48;57.20;;;19.90;;
35223;SDS011;21367;51.930;8.112;2022-08-05T05:08:51;53.22;;;21.73;;
35223;SDS011;21367;51.930;8.112;2022-08-05T05:13:55;57.42;;;22.55;;
35223;SDS011;21367;51.930;8.112;2022-08-05T05:19:02;49.83;;;20.05;;
35223;SDS011;21367;51.930;8.112;2022-08-05T05:24:06;31.60;;;15.88;;
35223;SDS011;21367;51.930;8.112;2022-08-05T05:29:10;39.63;;;15.68;;
35223;SDS011;21367;51.930;8.112;2022-08-05T05:34:16;33.55;;;14.73;;
35223;SDS011;21367;51.930;8.112;2022-08-05T05:39:20;35.70;;;14.50;;
35223;SDS011;21367;51.930;8.112;2022-08-05T05:44:24;31.92;;;13.35;;
35223;SDS011;21367;51.930;8.112;2022-08-05T05:49:31;28.52;;;13.55;;
35223;SDS011;21367;51.930;8.112;2022-08-05T05:54:35;33.17;;;13.82;;
35223;SDS011;21367;51.930;8.112;2022-08-05T05:59:39;32.33;;;11.98;;
35223;SDS011;21367;51.930;8.112;2022-08-05T06:04:45;31.63;;;12.68;;
35223;SDS011;21367;51.930;8.112;2022-08-05T06:09:49;29.60;;;12.45;;
35223;SDS011;21367;51.930;8.112;2022-08-05T06:14:53;33.63;;;13.32;;
35223;SDS011;21367;51.930;8.112;2022-08-05T06:19:59;30.23;;;11.95;;
35223;SDS011;21367;51.930;8.112;2022-08-05T06:25:03;35.20;;;12.65;;
35223;SDS011;21367;51.930;8.112;2022-08-05T06:30:09;20.73;;;10.07;;
35223;SDS011;21367;51.930;8.112;2022-08-05T06:35:18;21.80;;;10.30;;
35223;SDS011;21367;51.930;8.112;2022-08-05T06:40:25;18.90;;;9.98;;
35223;SDS011;21367;51.930;8.112;2022-08-05T06:45:29;25.42;;;10.20;;
35223;SDS011;21367;51.930;8.112;2022-08-05T06:50:36;26.10;;;11.13;;
35223;SDS011;21367;51.930;8.112;2022-08-05T06:55:40;25.27;;;11.73;;
35223;SDS011;21367;51.930;8.112;2022-08-05T07:00:43;23.48;;;11.57;;
35223;SDS011;21367;51.930;8.112;2022-08-05T07:05:49;24.35;;;11.65;;
35223;SDS011;21367;51.930;8.112;2022-08-05T07:10:53;21.77;;;12.48;;
35223;SDS011;21367;51.930;8.112;2022-08-05T07:15:57;24.13;;;13.20;;
35223;SDS011;21367;51.930;8.112;2022-08-05T07:21:16;23.08;;;12.98;;
35223;SDS011;21367;51.930;8.112;2022-08-05T07:26:20;28.38;;;14.50;;
35223;SDS011;21367;51.930;8.112;2022-08-05T07:31:23;25.38;;;15.07;;
35223;SDS011;21367;51.930;8.112;2022-08-05T07:36:30;39.45;;;17.05;;
35223;SDS011;21367;51.930;8.112;2022-08-05T07:41:34;31.58;;;16.83;;
35223;SDS011;21367;51.930;8.112;2022-08-05T07:46:38;35.92;;;18.40;;
35223;SDS011;21367;51.930;8.112;2022-08-05T07:51:44;37.08;;;18.67;;
35223;SDS011;21367;51.930;8.112;2022-08-05T07:56:48;35.25;;;19.80;;
35223;SDS011;21367;51.930;8.112;2022-08-05T08:01:52;31.90;;;17.05;;
35223;SDS011;21367;51.930;8.112;2022-08-05T08:06:59;28.55;;;15.77;;
35223;SDS011;21367;51.930;8.112;2022-08-05T08:12:03;30.63;;;14.82;;
35223;SDS011;21367;51.930;8.112;2022-08-05T08:17:07;29.55;;;13.85;;
35223;SDS011;21367;51.930;8.112;2022-08-05T08:22:14;24.40;;;12.35;;
35223;SDS011;21367;51.930;8.112;2022-08-05T08:27:17;27.40;;;12.98;;
35223;SDS011;21367;51.930;8.112;2022-08-05T08:32:21;25.83;;;13.63;;
35223;SDS011;21367;51.930;8.112;2022-08-05T08:37:30;25.08;;;12.93;;
35223;SDS011;21367;51.930;8.112;2022-08-05T08:42:34;27.55;;;12.77;;
35223;SDS011;21367;51.930;8.112;2022-08-05T08:47:39;18.65;;;10.10;;
35223;SDS011;21367;51.930;8.112;2022-08-05T08:52:48;21.02;;;8.95;;
35223;SDS011;21367;51.930;8.112;2022-08-05T08:57:54;16.73;;;7.88;;
35223;SDS011;21367;51.930;8.112;2022-08-05T09:02:59;15.15;;;7.78;;
35223;SDS011;21367;51.930;8.112;2022-08-05T09:08:06;13.32;;;7.75;;
35223;SDS011;21367;51.930;8.112;2022-08-05T09:13:12;15.00;;;7.50;;
35223;SDS011;21367;51.930;8.112;2022-08-05T09:18:16;11.85;;;6.07;;
35223;SDS011;21367;51.930;8.112;2022-08-05T09:23:23;21.15;;;7.53;;
35223;SDS011;21367;51.930;8.112;2022-08-05T09:33:31;16.92;;;6.57;;
35223;SDS011;21367;51.930;8.112;2022-08-05T09:38:38;14.10;;;5.95;;
35223;SDS011;21367;51.930;8.112;2022-08-05T09:43:58;12.10;;;5.93;;
35223;SDS011;21367;51.930;8.112;2022-08-05T09:49:03;15.93;;;5.97;;
35223;SDS011;21367;51.930;8.112;2022-08-05T09:54:09;14.70;;;6.03;;
35223;SDS011;21367;51.930;8.112;2022-08-05T09:59:14;15.73;;;6.07;;
35223;SDS011;21367;51.930;8.112;2022-08-05T10:04:17;18.40;;;5.20;;
35223;SDS011;21367;51.930;8.112;2022-08-05T10:09:24;11.23;;;5.53;;
35223;SDS011;21367;51.930;8.112;2022-08-05T10:14:29;11.85;;;5.07;;
35223;SDS011;21367;51.930;8.112;2022-08-05T10:19:33;11.52;;;5.28;;
35223;SDS011;21367;51.930;8.112;2022-08-05T10:24:40;14.65;;;5.65;;
35223;SDS011;21367;51.930;8.112;2022-08-05T10:29:44;10.63;;;4.57;;
35223;SDS011;21367;51.930;8.112;2022-08-05T10:34:47;9.60;;;4.40;;
35223;SDS011;21367;51.930;8.112;2022-08-05T10:39:54;10.30;;;3.85;;
35223;SDS011;21367;51.930;8.112;2022-08-05T10:45:00;11.27;;;4.00;;
35223;SDS011;21367;51.930;8.112;2022-08-05T10:50:05;11.40;;;3.65;;
35223;SDS011;21367;51.930;8.112;2022-08-05T10:55:15;9.93;;;3.30;;
35223;SDS011;21367;51.930;8.112;2022-08-05T11:00:19;12.23;;;3.15;;
35223;SDS011;21367;51.930;8.112;2022-08-05T11:05:24;9.70;;;2.75;;
35223;SDS011;21367;51.930;8.112;2022-08-05T11:10:31;7.22;;;3.78;;
35223;SDS011;21367;51.930;8.112;2022-08-05T11:15:37;9.00;;;2.92;;
35223;SDS011;21367;51.930;8.112;2022-08-05T11:20:43;5.93;;;2.70;;
35223;SDS011;21367;51.930;8.112;2022-08-05T11:26:01;9.85;;;3.40;;
35223;SDS011;21367;51.930;8.112;2022-08-05T11:42:03;8.82;;;2.30;;
35223;SDS011;21367;51.930;8.112;2022-08-05T11:47:08;6.57;;;2.50;;
35223;SDS011;21367;51.930;8.112;2022-08-05T11:52:12;6.65;;;2.80;;
35223;SDS011;21367;51.930;8.112;2022-08-05T11:57:30;9.52;;;3.45;;
35223;SDS011;21367;51.930;8.112;2022-08-05T12:02:34;12.68;;;3.05;;
35223;SDS011;21367;51.930;8.112;2022-08-05T12:07:38;8.30;;;2.75;;
35223;SDS011;21367;51.930;8.112;2022-08-05T12:12:45;7.38;;;3.10;;
35223;SDS011;21367;51.930;8.112;2022-08-05T12:17:49;7.07;;;3.25;;
35223;SDS011;21367;51.930;8.112;2022-08-05T12:23:06;7.13;;;3.17;;
35223;SDS011;21367;51.930;8.112;2022-08-05T12:28:12;6.60;;;2.67;;
35223;SDS011;21367;51.930;8.112;2022-08-05T12:33:31;5.13;;;2.20;;
35223;SDS011;21367;51.930;8.112;2022-08-05T12:38:36;5.50;;;2.42;;
35223;SDS011;21367;51.930;8.112;2022-08-05T12:43:53;6.05;;;2.17;;
35223;SDS011;21367;51.930;8.112;2022-08-05T12:48:59;7.95;;;2.60;;
35223;SDS011;21367;51.930;8.112;2022-08-05T12:54:04;6.25;;;2.03;;
35223;SDS011;21367;51.930;8.112;2022-08-05T12:59:12;6.97;;;2.33;;
35223;SDS011;21367;51.930;8.112;2022-08-05T13:04:17;10.23;;;2.35;;
35223;SDS011;21367;51.930;8.112;2022-08-05T13:09:21;4.03;;;2.00;;
35223;SDS011;21367;51.930;8.112;2022-08-05T13:14:28;6.70;;;1.65;;
35223;SDS011;21367;51.930;8.112;2022-08-05T13:19:36;3.15;;;1.20;;
35223;SDS011;21367;51.930;8.112;2022-08-05T13:24:41;6.00;;;1.63;;
35223;SDS011;21367;51.930;8.112;2022-08-05T13:29:47;3.70;;;1.55;;
35223;SDS011;21367;51.930;8.112;2022-08-05T13:34:51;4.38;;;1.70;;
35223;SDS011;21367;51.930;8.112;2022-08-05T13:39:55;7.05;;;1.90;;
35223;SDS011;21367;51.930;8.112;2022-08-05T13:45:02;7.68;;;1.65;;
35223;SDS011;21367;51.930;8.112;2022-08-05T13:50:07;3.55;;;2.00;;
35223;SDS011;21367;51.930;8.112;2022-08-05T13:55:10;4.72;;;2.10;;
35223;SDS011;21367;51.930;8.112;2022-08-05T14:00:17;7.80;;;1.73;;
35223;SDS011;21367;51.930;8.112;2022-08-05T14:05:21;5.57;;;1.50;;
35223;SDS011;21367;51.930;8.112;2022-08-05T14:10:25;4.65;;;1.52;;
35223;SDS011;21367;51.930;8.112;2022-08-05T14:15:32;5.75;;;1.60;;
35223;SDS011;21367;51.930;8.112;2022-08-05T14:20:36;7.25;;;2.08;;
35223;SDS011;21367;51.930;8.112;2022-08-05T14:25:39;11.27;;;1.98;;
35223;SDS011;21367;51.930;8.112;2022-08-05T14:30:46;7.47;;;1.65;;
35223;SDS011;21367;51.930;8.112;2022-08-05T14:35:50;6.65;;;1.70;;
35223;SDS011;21367;51.930;8.112;2022-08-05T14:40:54;7.55;;;2.00;;
35223;SDS011;21367;51.930;8.112;2022-08-05T14:46:01;5.22;;;1.80;;
35223;SDS011;21367;51.930;8.112;2022-08-05T14:51:05;6.93;;;1.80;;
35223;SDS011;21367;51.930;8.112;2022-08-05T14:56:09;10.48;;;1.75;;
35223;SDS011;21367;51.930;8.112;2022-08-05T15:01:15;8.57;;;2.15;;
35223;SDS011;21367;51.930;8.112;2022-08-05T15:06:19;11.65;;;1.83;;
35223;SDS011;21367;51.930;8.112;2022-08-05T15:11:22;5.53;;;1.40;;
35223;SDS011;21367;51.930;8.112;2022-08-05T15:16:29;6.13;;;1.38;;
35223;SDS011;21367;51.930;8.112;2022-08-05T15:21:33;6.38;;;1.70;;
35223;SDS011;21367;51.930;8.112;2022-08-05T15:26:37;8.10;;;1.30;;
35223;SDS011;21367;51.930;8.112;2022-08-05T15:31:43;5.40;;;1.50;;
35223;SDS011;21367;51.930;8.112;2022-08-05T15:36:47;10.25;;;1.35;;
35223;SDS011;21367;51.930;8.112;2022-08-05T15:41:51;6.75;;;0.82;;
35223;SDS011;21367;51.930;8.112;2022-08-05T15:47:02;6.10;;;0.93;;
35223;SDS011;21367;51.930;8.112;2022-08-05T15:52:06;5.60;;;1.08;;
35223;SDS011;21367;51.930;8.112;2022-08-05T15:57:11;3.08;;;0.60;;
35223;SDS011;21367;51.930;8.112;2022-08-05T16:02:18;2.40;;;0.55;;
35223;SDS011;21367;51.930;8.112;2022-08-05T16:07:23;2.92;;;0.50;;
35223;SDS011;21367;51.930;8.112;2022-08-05T16:12:26;0.95;;;0.25;;
35223;SDS011;21367;51.930;8.112;2022-08-05T16:17:33;4.82;;;0.60;;
35223;SDS011;21367;51.930;8.112;2022-08-05T16:22:37;2.95;;;0.50;;
35223;SDS011;21367;51.930;8.112;2022-08-05T16:27:40;4.35;;;0.70;;
35223;SDS011;21367;51.930;8.112;2022-08-05T16:32:47;4.55;;;0.73;;
35223;SDS011;21367;51.930;8.112;2022-08-05T16:37:51;1.25;;;0.32;;
35223;SDS011;21367;51.930;8.112;2022-08-05T16:42:55;6.90;;;0.45;;
35223;SDS011;21367;51.930;8.112;2022-08-05T16:48:01;5.15;;;0.68;;
35223;SDS011;21367;51.930;8.112;2022-08-05T16:53:05;4.18;;;0.70;;
35223;SDS011;21367;51.930;8.112;2022-08-05T16:58:09;3.17;;;0.50;;
35223;SDS011;21367;51.930;8.112;2022-08-05T17:03:16;1.60;;;0.43;;
35223;SDS011;21367;51.930;8.112;2022-08-05T17:08:19;8.80;;;0.73;;
35223;SDS011;21367;51.930;8.112;2022-08-05T17:13:23;2.28;;;0.70;;
35223;SDS011;21367;51.930;8.112;2022-08-05T17:18:30;2.75;;;0.40;;
35223;SDS011;21367;51.930;8.112;2022-08-05T17:23:34;4.18;;;0.63;;
35223;SDS011;21367;51.930;8.112;2022-08-05T17:28:38;3.08;;;0.57;;
35223;SDS011;21367;51.930;8.112;2022-08-05T17:33:44;4.78;;;0.60;;
35223;SDS011;21367;51.930;8.112;2022-08-05T17:38:48;3.58;;;0.60;;
35223;SDS011;21367;51.930;8.112;2022-08-05T17:43:52;4.57;;;0.50;;
35223;SDS011;21367;51.930;8.112;2022-08-05T17:48:58;3.28;;;0.43;;
35223;SDS011;21367;51.930;8.112;2022-08-05T17:54:02;3.47;;;0.40;;
35223;SDS011;21367;51.930;8.112;2022-08-05T17:59:06;5.15;;;0.68;;
35223;SDS011;21367;51.930;8.112;2022-08-05T18:04:12;3.45;;;0.60;;
35223;SDS011;21367;51.930;8.112;2022-08-05T18:09:16;4.90;;;0.45;;
35223;SDS011;21367;51.930;8.112;2022-08-05T18:14:20;2.33;;;0.63;;
35223;SDS011;21367;51.930;8.112;2022-08-05T18:19:26;8.20;;;0.60;;
35223;SDS011;21367;51.930;8.112;2022-08-05T18:24:30;2.53;;;0.50;;
35223;SDS011;21367;51.930;8.112;2022-08-05T18:29:33;2.45;;;0.60;;
35223;SDS011;21367;51.930;8.112;2022-08-05T18:34:40;3.33;;;0.63;;
35223;SDS011;21367;51.930;8.112;2022-08-05T18:39:44;2.45;;;0.55;;
35223;SDS011;21367;51.930;8.112;2022-08-05T18:44:47;3.95;;;0.40;;
35223;SDS011;21367;51.930;8.112;2022-08-05T18:49:53;2.63;;;0.50;;
35223;SDS011;21367;51.930;8.112;2022-08-05T18:55:10;2.58;;;0.40;;
35223;SDS011;21367;51.930;8.112;2022-08-05T19:00:14;2.80;;;0.40;;
35223;SDS011;21367;51.930;8.112;2022-08-05T19:05:20;1.75;;;0.40;;
35223;SDS011;21367;51.930;8.112;2022-08-05T19:10:25;3.33;;;0.77;;
35223;SDS011;21367;51.930;8.112;2022-08-05T19:15:29;1.90;;;0.43;;
35223;SDS011;21367;51.930;8.112;2022-08-05T19:20:36;4.10;;;0.60;;
35223;SDS011;21367;51.930;8.112;2022-08-05T19:25:40;2.85;;;0.55;;
35223;SDS011;21367;51.930;8.112;2022-08-05T19:30:44;0.85;;;0.40;;
35223;SDS011;21367;51.930;8.112;2022-08-05T19:35:50;6.00;;;0.80;;
35223;SDS011;21367;51.930;8.112;2022-08-05T19:40:54;7.13;;;2.03;;
35223;SDS011;21367;51.930;8.112;2022-08-05T19:45:58;3.90;;;1.00;;
35223;SDS011;21367;51.930;8.112;2022-08-05T19:51:04;2.40;;;0.50;;
35223;SDS011;21367;51.930;8.112;2022-08-05T19:56:08;3.05;;;0.60;;
35223;SDS011;21367;51.930;8.112;2022-08-05T20:01:12;1.63;;;0.50;;
35223;SDS011;21367;51.930;8.112;2022-08-05T20:06:19;7.13;;;0.52;;
35223;SDS011;21367;51.930;8.112;2022-08-05T20:11:22;3.28;;;0.77;;
35223;SDS011;21367;51.930;8.112;2022-08-05T20:16:26;6.68;;;0.65;;
35223;SDS011;21367;51.930;8.112;2022-08-05T20:21:32;1.88;;;0.70;;
35223;SDS011;21367;51.930;8.112;2022-08-05T20:31:39;5.10;;;0.80;;
35223;SDS011;21367;51.930;8.112;2022-08-05T20:36:46;1.67;;;0.50;;
35223;SDS011;21367;51.930;8.112;2022-08-05T20:41:49;2.53;;;0.90;;
35223;SDS011;21367;51.930;8.112;2022-08-05T20:46:53;4.30;;;0.93;;
35223;SDS011;21367;51.930;8.112;2022-08-05T20:52:00;4.53;;;0.75;;
35223;SDS011;21367;51.930;8.112;2022-08-05T20:57:04;1.80;;;0.40;;
35223;SDS011;21367;51.930;8.112;2022-08-05T21:02:08;3.00;;;0.77;;
35223;SDS011;21367;51.930;8.112;2022-08-05T21:07:14;3.67;;;0.70;;
35223;SDS011;21367;51.930;8.112;2022-08-05T21:12:18;4.78;;;1.10;;
35223;SDS011;21367;51.930;8.112;2022-08-05T21:17:22;3.20;;;1.05;;
35223;SDS011;21367;51.930;8.112;2022-08-05T21:22:29;5.78;;;0.80;;
35223;SDS011;21367;51.930;8.112;2022-08-05T21:32:36;1.80;;;0.70;;
35223;SDS011;21367;51.930;8.112;2022-08-05T21:37:43;3.53;;;0.80;;
35223;SDS011;21367;51.930;8.112;2022-08-05T21:42:47;5.03;;;1.23;;
35223;SDS011;21367;51.930;8.112;2022-08-05T21:47:51;4.95;;;1.55;;
35223;SDS011;21367;51.930;8.112;2022-08-05T21:52:58;4.32;;;0.70;;
35223;SDS011;21367;51.930;8.112;2022-08-05T21:58:02;11.13;;;1.25;;
35223;SDS011;21367;51.930;8.112;2022-08-05T22:03:06;4.55;;;1.02;;
35223;SDS011;21367;51.930;8.112;2022-08-05T22:08:17;5.28;;;0.70;;
35223;SDS011;21367;51.930;8.112;2022-08-05T22:13:21;2.25;;;1.10;;
35223;SDS011;21367;51.930;8.112;2022-08-05T22:18:25;6.68;;;3.70;;
35223;SDS011;21367;51.930;8.112;2022-08-05T22:23:31;4.20;;;2.40;;
35223;SDS011;21367;51.930;8.112;2022-08-05T22:28:47;9.40;;;3.22;;
35223;SDS011;21367;51.930;8.112;2022-08-05T22:33:51;6.65;;;3.15;;
35223;SDS011;21367;51.930;8.112;2022-08-05T22:38:57;4.28;;;2.50;;
35223;SDS011;21367;51.930;8.112;2022-08-05T22:44:01;5.97;;;1.80;;
35223;SDS011;21367;51.930;8.112;2022-08-05T22:49:05;5.43;;;1.30;;
35223;SDS011;21367;51.930;8.112;2022-08-05T22:54:12;3.17;;;1.25;;
35223;SDS011;21367;51.930;8.112;2022-08-05T22:59:16;6.68;;;1.67;;
35223;SDS011;21367;51.930;8.112;2022-08-05T23:04:20;3.88;;;1.30;;
35223;SDS011;21367;51.930;8.112;2022-08-05T23:09:26;4.93;;;0.90;;
35223;SDS011;21367;51.930;8.112;2022-08-05T23:14:30;8.38;;;1.20;;
35223;SDS011;21367;51.930;8.112;2022-08-05T23:19:34;2.63;;;1.10;;
35223;SDS011;21367;51.930;8.112;2022-08-05T23:24:41;4.65;;;1.00;;
35223;SDS011;21367;51.930;8.112;2022-08-05T23:34:48;5.35;;;0.98;;
35223;SDS011;21367;51.930;8.112;2022-08-05T23:39:55;3.67;;;1.00;;
35223;SDS011;21367;51.930;8.112;2022-08-05T23:44:59;9.35;;;1.25;;
35223;SDS011;21367;51.930;8.112;2022-08-05T23:50:02;8.75;;;1.10;;
35223;SDS011;21367;51.930;8.112;2022-08-05T23:55:10;2.47;;;1.03;;
